Time;durP1;ratioP1;P1;durP2;ratioP2;P2;SDS_P1;SDS_P2;PMS_P1;PMS_P2;Temp;Humidity;BMP_temperature;BMP_pressure;BME280_temperature;BME280_humidity;BME280_pressure;Samples;Min_cycle;Max_cycle;Signal;HPM_P1;HPM_P2
2021/08/18 00:01:37;;;;;;;5.43;3.20;;;20.50;66.10;;;;;;5053592;28;20215;-79
2021/08/18 00:04:04;;;;;;;3.75;3.08;;;20.50;66.10;;;;;;5053505;28;20617;-79
2021/08/18 00:06:30;;;;;;;3.67;3.20;;;20.50;66.20;;;;;;5035485;28;20181;-80
2021/08/18 00:08:56;;;;;;;4.63;3.30;;;20.50;66.20;;;;;;5035660;28;20502;-81
2021/08/18 00:11:22;;;;;;;5.20;3.30;;;20.50;66.20;;;;;;5035327;28;20166;-80
2021/08/18 00:13:47;;;;;;;4.70;3.30;;;20.50;66.20;;;;;;5018470;28;20756;-82
2021/08/18 00:16:14;;;;;;;5.47;3.38;;;20.50;66.20;;;;;;5052980;28;20648;-81
2021/08/18 00:18:40;;;;;;;5.10;3.25;;;20.50;66.20;;;;;;5035577;28;20171;-79
2021/08/18 00:21:06;;;;;;;4.65;3.47;;;20.50;66.20;;;;;;5053174;28;20253;-81
2021/08/18 00:23:32;;;;;;;3.55;3.05;;;20.60;66.20;;;;;;5035132;28;20227;-82
2021/08/18 00:25:58;;;;;;;4.13;3.33;;;20.50;66.10;;;;;;5052982;28;20618;-79
2021/08/18 00:28:23;;;;;;;4.43;3.10;;;20.50;66.10;;;;;;5035080;28;20230;-80
2021/08/18 00:30:49;;;;;;;3.38;2.78;;;20.50;66.10;;;;;;5035077;28;20150;-81
2021/08/18 00:33:15;;;;;;;3.92;3.20;;;20.60;66.10;;;;;;5052767;28;20652;-82
2021/08/18 00:35:41;;;;;;;3.70;3.10;;;20.50;66.10;;;;;;5034976;28;20620;-82
2021/08/18 00:38:07;;;;;;;3.50;3.10;;;20.50;66.10;;;;;;5052747;28;20636;-81
2021/08/18 00:40:33;;;;;;;3.65;3.00;;;20.50;66.10;;;;;;5035180;28;20169;-79
2021/08/18 00:42:59;;;;;;;3.47;3.13;;;20.50;66.20;;;;;;5052718;28;20697;-80
2021/08/18 00:45:25;;;;;;;3.95;3.30;;;20.50;66.10;;;;;;5034986;28;20253;-80
2021/08/18 00:47:52;;;;;;;3.88;3.03;;;20.50;66.10;;;;;;5052790;28;20158;-81
2021/08/18 00:50:20;;;;;;;4.75;3.60;;;20.50;66.10;;;;;;5034803;28;20154;-81
2021/08/18 00:52:46;;;;;;;3.80;3.20;;;20.50;66.20;;;;;;5018089;28;20194;-80
2021/08/18 00:55:14;;;;;;;4.50;3.35;;;20.50;66.20;;;;;;5034669;28;20155;-81
2021/08/18 00:57:40;;;;;;;4.30;3.20;;;20.50;66.20;;;;;;5052542;28;20182;-79
2021/08/18 01:00:08;;;;;;;3.42;3.03;;;20.50;66.30;;;;;;5034852;28;20162;-83
2021/08/18 01:02:37;;;;;;;3.80;3.33;;;20.50;66.30;;;;;;5052304;28;20207;-80
2021/08/18 01:05:08;;;;;;;3.45;3.00;;;20.50;66.30;;;;;;5018968;28;20174;-80
2021/08/18 01:07:34;;;;;;;4.78;3.33;;;20.50;66.20;;;;;;5034462;28;20220;-82
2021/08/18 01:10:03;;;;;;;4.50;3.40;;;20.50;66.20;;;;;;5033607;28;20146;-82
2021/08/18 01:12:28;;;;;;;3.33;3.03;;;20.60;66.20;;;;;;5034423;28;20186;-80
2021/08/18 01:14:54;;;;;;;3.88;3.20;;;20.50;66.20;;;;;;5011855;28;20223;-80
2021/08/18 01:17:20;;;;;;;3.45;2.90;;;20.50;66.30;;;;;;4995040;28;20512;-80
2021/08/18 01:19:46;;;;;;;3.65;2.90;;;20.50;66.30;;;;;;4995056;28;20630;-82
2021/08/18 01:22:12;;;;;;;3.95;3.40;;;20.50;66.30;;;;;;5011279;28;20515;-84
2021/08/18 01:24:38;;;;;;;4.13;3.22;;;20.50;66.30;;;;;;4995072;28;20178;-81
2021/08/18 01:27:04;;;;;;;4.75;3.45;;;20.50;66.30;;;;;;5011396;28;20526;-81
2021/08/18 01:29:30;;;;;;;3.78;3.20;;;20.50;66.30;;;;;;5011510;28;20589;-80
2021/08/18 01:31:58;;;;;;;4.28;3.40;;;20.50;66.30;;;;;;5011025;28;20262;-81
2021/08/18 01:34:24;;;;;;;4.13;3.13;;;20.50;66.30;;;;;;5012715;28;20156;-80
2021/08/18 01:36:50;;;;;;;3.83;3.25;;;20.50;66.30;;;;;;5012325;28;20155;-83
2021/08/18 01:39:16;;;;;;;3.47;3.08;;;20.50;66.30;;;;;;5012342;28;20160;-83
2021/08/18 01:41:42;;;;;;;4.30;3.28;;;20.50;66.30;;;;;;5012122;28;20262;-79
2021/08/18 01:44:08;;;;;;;3.40;3.10;;;20.50;66.30;;;;;;5012077;28;20152;-83
2021/08/18 01:46:34;;;;;;;3.67;3.15;;;20.50;66.30;;;;;;5011186;28;20619;-80
2021/08/18 01:49:00;;;;;;;3.42;3.00;;;20.50;66.30;;;;;;4994792;28;20175;-82
2021/08/18 01:51:26;;;;;;;3.70;3.30;;;20.50;66.30;;;;;;5012212;28;20229;-83
2021/08/18 01:53:52;;;;;;;5.38;3.33;;;20.50;66.30;;;;;;5010978;28;20582;-80
2021/08/18 01:56:18;;;;;;;4.18;3.28;;;20.50;66.30;;;;;;5011904;28;20163;-82
2021/08/18 01:58:44;;;;;;;3.45;3.15;;;20.50;66.20;;;;;;5011954;28;20679;-79
2021/08/18 02:01:12;;;;;;;4.10;3.33;;;20.50;66.20;;;;;;5010956;28;20197;-80
2021/08/18 02:03:38;;;;;;;3.97;3.20;;;20.50;66.20;;;;;;4994790;28;20170;-80
2021/08/18 02:06:04;;;;;;;3.63;3.25;;;20.50;66.20;;;;;;5011850;28;20238;-80
2021/08/18 02:08:30;;;;;;;4.35;3.33;;;20.50;66.30;;;;;;5011755;28;20234;-79
2021/08/18 02:10:56;;;;;;;4.65;3.15;;;20.50;66.30;;;;;;5010442;28;20695;-80
2021/08/18 02:13:22;;;;;;;3.88;3.33;;;20.50;66.30;;;;;;5024517;28;20225;-80
2021/08/18 02:15:48;;;;;;;3.55;3.00;;;20.40;66.20;;;;;;5017064;28;20164;-82
2021/08/18 02:18:15;;;;;;;4.22;3.25;;;20.50;66.30;;;;;;5033426;28;20151;-80
2021/08/18 02:20:43;;;;;;;3.38;3.00;;;20.50;66.30;;;;;;5032926;28;20173;-81
2021/08/18 02:23:09;;;;;;;3.42;3.03;;;20.50;66.30;;;;;;5033391;28;20158;-83
2021/08/18 02:25:35;;;;;;;4.40;3.42;;;20.50;66.30;;;;;;5033605;28;20154;-83
2021/08/18 02:28:02;;;;;;;4.65;3.55;;;20.50;66.30;;;;;;5033568;28;20233;-82
2021/08/18 02:30:28;;;;;;;3.53;3.17;;;20.50;66.30;;;;;;5016699;28;20612;-82
2021/08/18 02:32:54;;;;;;;4.68;3.15;;;20.50;66.30;;;;;;5017024;28;20752;-81
2021/08/18 02:35:20;;;;;;;3.67;3.28;;;20.40;67.10;;;;;;5033215;28;20636;-82
2021/08/18 02:37:46;;;;;;;4.25;3.20;;;20.50;66.30;;;;;;5016716;28;20194;-82
2021/08/18 02:40:16;;;;;;;3.47;3.13;;;20.50;66.30;;;;;;5050800;28;20613;-82
2021/08/18 02:42:42;;;;;;;4.53;3.25;;;20.50;66.30;;;;;;5033464;28;20215;-81
2021/08/18 02:45:09;;;;;;;4.10;3.20;;;20.50;66.30;;;;;;5033319;28;20150;-83
2021/08/18 02:47:35;;;;;;;4.22;3.28;;;20.50;66.30;;;;;;5032855;28;20617;-80
2021/08/18 02:50:02;;;;;;;4.53;3.03;;;20.40;66.30;;;;;;5033004;28;20162;-82
2021/08/18 02:52:28;;;;;;;3.92;3.28;;;20.50;66.30;;;;;;5050856;28;20189;-80
2021/08/18 02:54:54;;;;;;;5.47;3.40;;;20.50;66.30;;;;;;5050590;28;20158;-81
2021/08/18 02:57:20;;;;;;;3.53;3.22;;;20.50;66.30;;;;;;5050680;28;20155;-80
2021/08/18 02:59:46;;;;;;;4.47;3.05;;;20.40;66.20;;;;;;5050557;28;20163;-83
2021/08/18 03:02:12;;;;;;;3.47;3.00;;;20.50;66.30;;;;;;5032662;28;20517;-82
2021/08/18 03:04:38;;;;;;;4.05;3.20;;;20.50;66.40;;;;;;5033048;28;20162;-80
2021/08/18 03:07:04;;;;;;;3.30;3.00;;;20.50;66.30;;;;;;5032659;28;20223;-82
2021/08/18 03:09:30;;;;;;;4.18;3.30;;;20.50;66.30;;;;;;5033035;28;20224;-83
2021/08/18 03:11:56;;;;;;;4.65;3.33;;;20.50;66.30;;;;;;5032845;28;20150;-81
2021/08/18 03:14:22;;;;;;;3.33;2.83;;;20.40;66.30;;;;;;5050087;28;20588;-83
2021/08/18 03:16:48;;;;;;;3.70;3.00;;;20.40;66.30;;;;;;5050613;28;20166;-80
2021/08/18 03:19:14;;;;;;;4.18;3.30;;;20.50;66.30;;;;;;5032443;28;20196;-83
2021/08/18 03:21:40;;;;;;;3.83;3.20;;;20.40;66.30;;;;;;5016236;28;20265;-83
2021/08/18 03:24:06;;;;;;;3.95;3.30;;;20.40;66.30;;;;;;5032635;28;20168;-82
2021/08/18 03:26:32;;;;;;;3.97;3.15;;;20.50;66.30;;;;;;5050151;28;20237;-81
2021/08/18 03:28:58;;;;;;;4.18;3.08;;;20.50;66.40;;;;;;5050390;28;20159;-81
2021/08/18 03:31:24;;;;;;;3.33;2.80;;;20.50;66.40;;;;;;5049930;28;20214;-82
2021/08/18 03:33:50;;;;;;;3.97;3.03;;;20.40;66.30;;;;;;5015341;28;20247;-79
2021/08/18 03:36:16;;;;;;;3.85;3.45;;;20.50;66.50;;;;;;5032341;28;20550;-79
2021/08/18 03:38:42;;;;;;;4.60;3.33;;;20.40;66.30;;;;;;5032230;28;20218;-81
2021/08/18 03:41:08;;;;;;;3.90;3.05;;;20.50;66.40;;;;;;5049944;28;20233;-80
2021/08/18 03:43:34;;;;;;;3.58;3.00;;;20.50;66.40;;;;;;5015824;28;20197;-79
2021/08/18 03:46:00;;;;;;;3.25;2.90;;;20.50;67.20;;;;;;5032243;28;20601;-82
2021/08/18 03:48:25;;;;;;;3.92;3.20;;;20.50;66.40;;;;;;5032064;28;20172;-82
2021/08/18 03:50:51;;;;;;;3.40;3.05;;;20.50;66.30;;;;;;5032302;28;20241;-81
2021/08/18 03:53:17;;;;;;;3.45;3.00;;;20.50;66.40;;;;;;5032154;28;20580;-81
2021/08/18 03:55:43;;;;;;;3.63;3.15;;;20.40;66.30;;;;;;5032833;28;20620;-81
2021/08/18 03:58:09;;;;;;;3.47;3.00;;;20.50;66.30;;;;;;5031955;28;20163;-79
2021/08/18 04:00:35;;;;;;;3.95;3.22;;;20.50;66.40;;;;;;5015445;28;20169;-81
2021/08/18 04:03:02;;;;;;;4.03;2.90;;;20.50;66.40;;;;;;5015722;28;20189;-80
2021/08/18 04:05:28;;;;;;;3.55;2.90;;;20.50;66.50;;;;;;5032149;28;20173;-83
2021/08/18 04:07:54;;;;;;;3.67;3.10;;;20.50;66.50;;;;;;5031904;28;20174;-83
2021/08/18 04:10:20;;;;;;;3.28;2.92;;;20.50;66.40;;;;;;5049677;28;20166;-82
2021/08/18 04:12:51;;;;;;;4.00;2.85;;;20.50;66.50;;;;;;5031578;28;20190;-79
2021/08/18 04:15:17;;;;;;;3.38;3.00;;;20.40;66.40;;;;;;5016013;28;20193;-81
2021/08/18 04:17:43;;;;;;;3.92;2.97;;;20.50;66.40;;;;;;5049566;28;20194;-83
2021/08/18 04:20:09;;;;;;;3.72;2.85;;;20.40;66.30;;;;;;5049569;28;20162;-81
2021/08/18 04:22:35;;;;;;;3.72;2.90;;;20.40;66.20;;;;;;5031816;28;20162;-83
2021/08/18 04:25:01;;;;;;;3.80;3.00;;;20.40;66.30;;;;;;5031685;28;20163;-81
2021/08/18 04:27:27;;;;;;;3.58;2.63;;;20.40;66.30;;;;;;5031790;28;20166;-80
2021/08/18 04:29:53;;;;;;;3.58;2.80;;;20.30;66.20;;;;;;5031782;28;20163;-80
2021/08/18 04:32:19;;;;;;;3.20;2.90;;;20.30;66.30;;;;;;5049836;28;20557;-81
2021/08/18 04:34:45;;;;;;;3.38;2.88;;;20.30;66.30;;;;;;5049340;28;20162;-82
2021/08/18 04:37:12;;;;;;;2.78;2.58;;;20.30;66.30;;;;;;5031666;28;20151;-82
2021/08/18 04:39:37;;;;;;;3.03;2.60;;;20.40;66.10;;;;;;5049339;28;20154;-80
2021/08/18 04:42:04;;;;;;;2.92;2.40;;;20.30;66.20;;;;;;5049258;28;20151;-80
2021/08/18 04:44:29;;;;;;;2.47;2.28;;;20.30;66.20;;;;;;5051638;28;20609;-83
2021/08/18 04:46:55;;;;;;;3.17;2.75;;;20.30;66.10;;;;;;5018241;28;20168;-83
2021/08/18 04:49:21;;;;;;;3.08;2.67;;;20.30;66.10;;;;;;5052828;28;20150;-80
2021/08/18 04:51:47;;;;;;;3.15;2.63;;;20.30;66.20;;;;;;5052826;28;20176;-79
2021/08/18 04:54:13;;;;;;;2.67;2.40;;;20.30;66.30;;;;;;5035017;28;20596;-81
2021/08/18 04:56:39;;;;;;;2.53;2.33;;;20.20;66.00;;;;;;5052516;28;20155;-81
2021/08/18 04:59:05;;;;;;;3.85;2.30;;;20.30;66.30;;;;;;5034567;28;20169;-81
2021/08/18 05:01:31;;;;;;;2.88;2.60;;;20.30;66.30;;;;;;5053076;28;20174;-79
2021/08/18 05:03:57;;;;;;;2.65;2.30;;;20.30;66.40;;;;;;5052302;28;20154;-82
2021/08/18 05:06:23;;;;;;;2.40;2.20;;;20.20;66.30;;;;;;5052396;28;20219;-83
2021/08/18 05:08:49;;;;;;;2.78;2.40;;;20.20;66.30;;;;;;5052217;28;20207;-80
2021/08/18 05:11:15;;;;;;;2.67;2.30;;;20.20;66.30;;;;;;5052168;28;20248;-80
2021/08/18 05:13:40;;;;;;;2.35;2.05;;;20.20;66.40;;;;;;5052070;28;20229;-79
2021/08/18 05:16:06;;;;;;;2.55;2.30;;;20.20;66.30;;;;;;5052312;28;20166;-83
2021/08/18 05:18:32;;;;;;;3.08;2.65;;;20.10;66.40;;;;;;5034305;28;20150;-79
2021/08/18 05:20:58;;;;;;;2.40;2.20;;;20.20;66.50;;;;;;5052141;28;20519;-79
2021/08/18 05:23:25;;;;;;;3.47;2.55;;;20.20;66.50;;;;;;5018130;28;20237;-83
2021/08/18 05:25:51;;;;;;;2.75;2.40;;;20.20;66.40;;;;;;5034563;28;20660;-83
2021/08/18 05:28:18;;;;;;;3.15;2.33;;;20.20;66.30;;;;;;5051929;28;20231;-83
2021/08/18 05:30:44;;;;;;;2.80;2.28;;;20.10;66.50;;;;;;5052207;28;20162;-80
2021/08/18 05:33:10;;;;;;;2.10;1.90;;;20.20;66.80;;;;;;5052246;28;20720;-80
2021/08/18 05:35:36;;;;;;;2.92;2.50;;;20.20;66.80;;;;;;5051767;28;20150;-82
2021/08/18 05:38:02;;;;;;;2.60;2.08;;;20.20;66.80;;;;;;5051851;28;20632;-81
2021/08/18 05:40:28;;;;;;;3.55;2.10;;;20.10;66.90;;;;;;5034347;28;20617;-80
2021/08/18 05:42:54;;;;;;;2.47;2.28;;;20.10;66.80;;;;;;5052000;28;20166;-82
2021/08/18 05:45:20;;;;;;;2.58;2.15;;;20.10;66.90;;;;;;5033947;28;20219;-80
2021/08/18 05:47:46;;;;;;;2.28;2.08;;;20.10;66.90;;;;;;5034070;28;20574;-83
2021/08/18 05:50:12;;;;;;;2.30;2.10;;;20.10;66.90;;;;;;5033871;28;20233;-82
2021/08/18 05:52:38;;;;;;;2.10;1.90;;;20.10;66.90;;;;;;5051811;28;20626;-82
2021/08/18 05:55:05;;;;;;;1.90;1.70;;;20.10;67.00;;;;;;5033017;28;20589;-80
2021/08/18 05:57:31;;;;;;;3.17;2.28;;;20.10;67.00;;;;;;5017413;28;20640;-81
2021/08/18 05:59:57;;;;;;;2.33;2.13;;;20.10;67.10;;;;;;5051494;28;20154;-79
2021/08/18 06:02:23;;;;;;;2.28;2.00;;;20.10;67.00;;;;;;5051720;28;20207;-81
2021/08/18 06:04:52;;;;;;;2.45;2.10;;;20.20;67.10;;;;;;5034176;28;20206;-81
2021/08/18 06:07:18;;;;;;;2.28;1.90;;;20.10;67.10;;;;;;5051606;28;20494;-80
2021/08/18 06:09:43;;;;;;;2.38;2.17;;;20.10;67.30;;;;;;5033564;28;20157;-81
2021/08/18 06:12:09;;;;;;;2.10;1.90;;;20.10;67.70;;;;;;5051496;28;20507;-82
2021/08/18 06:14:35;;;;;;;2.30;2.10;;;20.10;67.70;;;;;;5050985;28;20249;-81
2021/08/18 06:17:01;;;;;;;1.88;1.67;;;20.10;68.00;;;;;;5051421;28;20159;-82
2021/08/18 06:19:27;;;;;;;2.55;1.77;;;20.10;68.50;;;;;;5017225;28;20154;-81
2021/08/18 06:21:53;;;;;;;3.47;1.98;;;20.20;68.50;;;;;;5050972;28;20271;-82
2021/08/18 06:26:58;;;;;;;2.40;1.70;;;20.10;68.80;;;;;;5035171;28;20629;-82
2021/08/18 06:29:24;;;;;;;2.80;2.40;;;20.10;68.90;;;;;;5034171;28;20189;-80
2021/08/18 06:31:52;;;;;;;2.53;1.77;;;20.10;69.00;;;;;;5033543;28;20181;-81
2021/08/18 06:34:18;;;;;;;2.30;1.90;;;20.10;69.10;;;;;;5016639;28;20202;-82
2021/08/18 06:36:45;;;;;;;2.30;2.00;;;20.10;68.90;;;;;;5032919;28;20554;-82
2021/08/18 06:39:11;;;;;;;2.50;1.90;;;20.20;69.00;;;;;;5000506;28;20194;-83
2021/08/18 06:41:36;;;;;;;1.95;1.77;;;20.20;69.00;;;;;;5032653;28;20159;-82
2021/08/18 06:44:02;;;;;;;1.70;1.60;;;20.10;69.10;;;;;;5050484;28;20226;-82
2021/08/18 06:46:29;;;;;;;2.10;1.90;;;20.10;69.10;;;;;;5050365;28;20613;-82
2021/08/18 06:48:55;;;;;;;2.72;2.47;;;20.20;69.20;;;;;;5050235;28;20179;-82
2021/08/18 06:51:21;;;;;;;2.80;1.80;;;20.10;69.10;;;;;;5015923;28;20161;-83
2021/08/18 06:53:48;;;;;;;1.77;1.55;;;20.20;69.30;;;;;;5033071;28;20198;-83
2021/08/18 06:56:15;;;;;;;3.08;1.90;;;20.20;69.50;;;;;;4998106;28;20251;-83
2021/08/18 06:58:43;;;;;;;2.83;2.10;;;20.20;69.80;;;;;;5068234;28;20178;-82
2021/08/18 07:01:14;;;;;;;2.20;1.77;;;20.20;69.60;;;;;;5069696;28;20235;-83
2021/08/18 07:03:41;;;;;;;2.13;1.83;;;20.20;69.50;;;;;;5068132;28;20209;-81
2021/08/18 07:06:08;;;;;;;1.70;1.48;;;20.20;69.50;;;;;;5083128;28;20182;-81
2021/08/18 07:08:34;;;;;;;2.95;1.77;;;20.20;69.40;;;;;;5066783;28;20231;-81
2021/08/18 07:11:04;;;;;;;2.28;1.80;;;20.20;69.30;;;;;;5050491;28;20154;-82
2021/08/18 07:13:29;;;;;;;2.67;1.80;;;20.20;69.00;;;;;;5080412;28;20234;-81
2021/08/18 07:15:56;;;;;;;2.20;1.92;;;20.20;69.50;;;;;;5028453;28;20189;-81
2021/08/18 07:18:23;;;;;;;2.40;2.10;;;20.20;69.60;;;;;;5029020;28;20162;-82
2021/08/18 07:20:50;;;;;;;2.05;1.50;;;20.20;69.90;;;;;;5029119;28;20195;-82
2021/08/18 07:23:16;;;;;;;2.63;1.95;;;20.20;69.80;;;;;;5028995;28;20162;-81
2021/08/18 07:25:42;;;;;;;2.10;1.90;;;20.20;69.90;;;;;;5028374;28;20166;-80
2021/08/18 07:28:07;;;;;;;3.67;1.98;;;20.20;69.60;;;;;;5029183;28;20194;-81
2021/08/18 07:30:33;;;;;;;2.60;2.03;;;20.20;69.60;;;;;;5030705;28;20467;-81
2021/08/18 07:32:59;;;;;;;1.70;1.60;;;20.20;69.60;;;;;;5031853;28;20187;-83
2021/08/18 07:35:25;;;;;;;2.17;1.70;;;20.20;69.70;;;;;;5029396;28;20170;-83
2021/08/18 07:37:51;;;;;;;3.85;2.10;;;20.20;69.80;;;;;;5029412;28;20238;-82
2021/08/18 07:40:18;;;;;;;2.38;1.90;;;20.20;69.70;;;;;;5028910;28;20564;-81
2021/08/18 07:42:45;;;;;;;3.10;1.77;;;20.20;69.60;;;;;;5032641;28;20264;-83
2021/08/18 07:45:14;;;;;;;2.00;1.67;;;20.20;69.90;;;;;;5048275;28;20208;-82
2021/08/18 07:47:40;;;;;;;3.30;2.00;;;20.30;69.30;;;;;;5030939;28;20196;-82
2021/08/18 07:50:07;;;;;;;3.00;2.25;;;20.30;69.30;;;;;;5031450;28;20507;-82
2021/08/18 07:52:33;;;;;;;4.40;2.10;;;20.30;69.40;;;;;;5030516;28;20195;-82
2021/08/18 07:54:59;;;;;;;6.97;2.13;;;20.20;69.50;;;;;;5030406;28;20610;-80
2021/08/18 07:57:25;;;;;;;8.18;2.20;;;20.20;69.50;;;;;;5030880;28;20629;-82
2021/08/18 07:59:52;;;;;;;5.22;2.20;;;20.30;69.60;;;;;;5030752;28;20610;-80
2021/08/18 08:02:19;;;;;;;6.20;2.13;;;20.20;69.50;;;;;;5013406;28;20155;-80
2021/08/18 08:04:47;;;;;;;7.82;1.90;;;20.20;69.70;;;;;;5028604;28;20233;-83
2021/08/18 08:07:15;;;;;;;5.43;2.10;;;20.20;69.80;;;;;;5071883;28;20164;-81
2021/08/18 08:09:43;;;;;;;4.15;1.73;;;20.20;69.80;;;;;;5073421;27;20215;-81
2021/08/18 08:12:09;;;;;;;4.60;1.98;;;20.20;69.90;;;;;;5082405;28;20240;-83
2021/08/18 08:14:40;;;;;;;6.47;1.85;;;20.20;69.90;;;;;;5047323;28;20225;-84
2021/08/18 08:17:06;;;;;;;6.68;2.15;;;20.20;69.90;;;;;;5051007;28;20664;-82
2021/08/18 08:19:33;;;;;;;5.28;1.67;;;20.10;69.90;;;;;;5052033;28;20163;-81
2021/08/18 08:22:03;;;;;;;2.20;1.40;;;20.20;69.90;;;;;;5037386;28;20154;-83
2021/08/18 08:24:29;;;;;;;5.88;1.85;;;20.20;70.00;;;;;;5090137;28;20273;-82
2021/08/18 08:26:55;;;;;;;3.25;1.88;;;20.20;70.10;;;;;;5039834;28;20163;-81
2021/08/18 08:29:21;;;;;;;6.22;1.98;;;20.20;70.10;;;;;;5027431;28;20228;-81
2021/08/18 08:31:47;;;;;;;3.47;1.60;;;20.20;70.50;;;;;;5040498;28;20158;-82
2021/08/18 08:34:16;;;;;;;2.75;2.00;;;20.20;70.60;;;;;;5040735;27;20213;-82
2021/08/18 08:36:46;;;;;;;3.63;1.70;;;20.20;70.40;;;;;;5045786;27;20158;-82
2021/08/18 08:39:12;;;;;;;3.17;1.60;;;20.20;70.40;;;;;;5022689;28;20185;-82
2021/08/18 08:41:39;;;;;;;3.20;1.73;;;20.20;70.30;;;;;;5041224;28;20157;-81
2021/08/18 08:44:06;;;;;;;2.22;1.45;;;20.20;70.20;;;;;;5084952;27;20155;-81
2021/08/18 08:46:32;;;;;;;4.68;1.73;;;20.20;70.50;;;;;;5081836;27;20264;-81
2021/08/18 08:48:58;;;;;;;2.75;1.80;;;20.20;70.50;;;;;;5024440;28;20241;-81
2021/08/18 08:51:24;;;;;;;2.83;2.03;;;20.20;70.50;;;;;;5145307;27;20158;-80
2021/08/18 08:53:50;;;;;;;5.72;1.90;;;20.10;70.70;;;;;;5043620;28;20562;-80
2021/08/18 08:56:35;;;;;;;3.28;1.70;;;20.20;70.60;;;;;;5032110;28;20162;-80
2021/08/18 08:59:21;;;;;;;4.00;1.65;;;20.20;70.10;;;;;;4993159;28;20623;-80
2021/08/18 09:02:08;;;;;;;5.22;1.63;;;20.30;70.40;;;;;;4970705;28;20325;-81
2021/08/18 09:04:37;;;;;;;3.28;1.48;;;20.40;70.40;;;;;;5027104;28;20273;-81
2021/08/18 09:07:08;;;;;;;5.85;1.95;;;20.40;70.40;;;;;;4974840;28;20161;-82
2021/08/18 09:09:55;;;;;;;4.07;1.52;;;20.40;71.00;;;;;;4974311;28;20191;-82
2021/08/18 09:12:26;;;;;;;2.20;1.50;;;20.40;71.80;;;;;;4991025;28;20194;-81
2021/08/18 09:15:18;;;;;;;2.63;1.40;;;20.30;70.70;;;;;;4989946;28;20219;-80
2021/08/18 09:18:33;;;;;;;2.40;1.58;;;20.40;70.90;;;;;;5032989;28;20184;-82
2021/08/18 09:21:37;;;;;;;2.75;1.30;;;20.20;70.60;;;;;;5042018;28;20671;-80
2021/08/18 09:24:18;;;;;;;3.40;1.15;;;20.30;70.30;;;;;;5035632;28;20578;-81
2021/08/18 09:27:08;;;;;;;1.75;1.33;;;20.30;70.40;;;;;;5035723;28;20166;-82
2021/08/18 09:29:44;;;;;;;3.47;1.50;;;20.30;70.50;;;;;;5051257;28;20709;-82
2021/08/18 09:32:28;;;;;;;2.58;1.40;;;20.30;70.60;;;;;;5003434;28;20186;-80
2021/08/18 09:35:02;;;;;;;2.13;1.20;;;20.20;70.60;;;;;;5052464;28;20185;-80
2021/08/18 09:37:28;;;;;;;2.53;1.45;;;20.30;70.50;;;;;;5071219;28;20165;-80
2021/08/18 09:39:55;;;;;;;3.22;1.38;;;20.30;70.50;;;;;;5039102;28;20184;-80
2021/08/18 09:42:28;;;;;;;1.83;1.15;;;20.30;70.50;;;;;;5052401;28;20249;-81
2021/08/18 09:45:22;;;;;;;3.30;1.67;;;20.30;70.50;;;;;;5020227;28;20227;-81
2021/08/18 09:47:53;;;;;;;3.72;1.90;;;20.30;70.60;;;;;;5035943;28;20249;-83
2021/08/18 09:50:21;;;;;;;3.22;1.25;;;20.30;70.70;;;;;;5019225;28;20162;-80
2021/08/18 09:52:47;;;;;;;1.88;1.40;;;20.30;70.70;;;;;;5036062;28;20229;-80
2021/08/18 09:55:14;;;;;;;2.03;1.10;;;20.30;70.90;;;;;;5052742;28;20553;-81
2021/08/18 09:57:39;;;;;;;1.75;1.30;;;20.30;71.10;;;;;;5019618;28;20162;-81
2021/08/18 10:00:06;;;;;;;3.10;1.48;;;20.30;71.10;;;;;;5035747;28;20178;-80
2021/08/18 10:02:32;;;;;;;2.03;1.50;;;20.30;71.20;;;;;;5052369;28;20572;-80
2021/08/18 10:04:59;;;;;;;3.88;1.48;;;20.30;71.20;;;;;;5052944;28;20609;-81
2021/08/18 10:07:27;;;;;;;1.42;1.23;;;20.20;71.20;;;;;;5036492;28;20188;-80
2021/08/18 10:09:54;;;;;;;1.95;1.13;;;20.20;71.30;;;;;;5052493;28;20159;-82
2021/08/18 10:12:20;;;;;;;2.13;1.25;;;20.30;71.20;;;;;;5035775;28;20204;-80
2021/08/18 10:14:46;;;;;;;4.47;1.52;;;20.30;71.40;;;;;;5035392;28;20257;-80
2021/08/18 10:17:12;;;;;;;2.35;1.20;;;20.20;71.50;;;;;;5019151;28;20210;-80
2021/08/18 10:19:38;;;;;;;2.83;1.27;;;20.20;71.40;;;;;;5052448;28;20261;-80
2021/08/18 10:22:04;;;;;;;1.42;1.30;;;20.30;71.60;;;;;;5035729;28;20154;-81
2021/08/18 10:24:32;;;;;;;1.55;1.30;;;20.30;71.60;;;;;;5052148;28;20217;-80
2021/08/18 10:26:58;;;;;;;2.63;1.30;;;20.30;71.60;;;;;;5019176;28;20174;-80
2021/08/18 10:29:30;;;;;;;1.23;1.10;;;20.30;71.70;;;;;;5018791;28;20272;-80
2021/08/18 10:31:59;;;;;;;1.67;1.10;;;20.30;71.70;;;;;;5035455;28;20155;-80
2021/08/18 10:34:35;;;;;;;1.10;1.00;;;20.30;71.80;;;;;;5035653;28;20201;-80
2021/08/18 10:37:02;;;;;;;2.20;1.15;;;20.30;71.90;;;;;;5035110;28;20192;-80
2021/08/18 10:39:30;;;;;;;3.40;1.20;;;20.20;71.80;;;;;;5051818;28;20245;-81
2021/08/18 10:42:13;;;;;;;2.00;1.20;;;20.20;71.80;;;;;;5034962;28;20146;-82
2021/08/18 10:44:50;;;;;;;1.90;1.15;;;20.30;71.90;;;;;;5034887;28;20197;-80
2021/08/18 10:47:26;;;;;;;1.02;0.93;;;20.20;71.70;;;;;;5052013;28;20176;-81
2021/08/18 10:50:24;;;;;;;1.80;1.08;;;20.30;71.80;;;;;;5035448;28;20228;-79
2021/08/18 10:52:51;;;;;;;2.40;1.30;;;20.30;71.90;;;;;;5037612;28;20213;-80
2021/08/18 10:55:27;;;;;;;2.00;1.10;;;20.30;71.90;;;;;;5035038;28;20159;-80
2021/08/18 10:57:54;;;;;;;2.78;1.33;;;20.30;72.00;;;;;;5034864;28;20162;-80
2021/08/18 11:00:22;;;;;;;1.48;1.35;;;20.30;72.00;;;;;;5034756;28;20213;-80
2021/08/18 11:02:58;;;;;;;1.45;1.20;;;20.30;72.00;;;;;;5035243;28;20169;-80
2021/08/18 11:05:29;;;;;;;1.10;1.00;;;20.20;71.90;;;;;;5035552;28;20157;-80
2021/08/18 11:08:33;;;;;;;1.30;1.20;;;20.30;71.80;;;;;;5034869;28;20157;-79
2021/08/18 11:11:11;;;;;;;1.73;1.00;;;20.30;71.80;;;;;;5051212;28;20169;-82
2021/08/18 11:13:47;;;;;;;2.25;1.13;;;20.30;71.80;;;;;;5051126;28;20224;-81
2021/08/18 11:16:16;;;;;;;3.83;1.45;;;20.30;71.80;;;;;;5051197;28;20236;-81
2021/08/18 11:18:47;;;;;;;2.97;1.30;;;20.30;71.90;;;;;;5059928;28;20165;-81
2021/08/18 11:21:15;;;;;;;1.00;0.90;;;20.20;71.80;;;;;;5055637;28;20184;-80
2021/08/18 11:23:42;;;;;;;2.50;1.20;;;20.30;71.80;;;;;;5071151;28;20169;-81
2021/08/18 11:26:08;;;;;;;2.08;1.10;;;20.30;71.80;;;;;;5054372;28;20153;-80
2021/08/18 11:28:36;;;;;;;1.40;1.17;;;20.30;71.60;;;;;;5069458;28;20215;-81
2021/08/18 11:31:04;;;;;;;1.33;1.10;;;20.30;71.50;;;;;;5051104;28;20218;-80
2021/08/18 11:33:30;;;;;;;1.20;1.10;;;20.30;71.60;;;;;;5020240;28;20204;-79
2021/08/18 11:35:56;;;;;;;1.42;0.93;;;20.30;71.50;;;;;;5053476;28;20213;-81
2021/08/18 11:38:22;;;;;;;2.65;1.08;;;20.30;71.60;;;;;;5039022;28;20238;-80
2021/08/18 11:40:50;;;;;;;1.23;1.13;;;20.40;71.60;;;;;;5031957;28;20154;-80
2021/08/18 11:43:16;;;;;;;1.45;1.15;;;20.30;71.60;;;;;;5015256;28;20217;-80
2021/08/18 11:45:48;;;;;;;1.80;1.15;;;20.30;71.60;;;;;;5015686;28;20165;-81
2021/08/18 11:48:14;;;;;;;2.20;1.30;;;20.30;71.80;;;;;;4999579;28;20158;-80
2021/08/18 11:50:53;;;;;;;3.10;1.10;;;20.30;71.90;;;;;;5049827;28;20237;-80
2021/08/18 11:53:21;;;;;;;1.63;1.40;;;20.30;71.90;;;;;;5016426;28;20201;-81
2021/08/18 11:55:47;;;;;;;3.17;1.20;;;20.40;72.00;;;;;;5035720;28;20261;-81
2021/08/18 11:58:12;;;;;;;1.55;1.25;;;20.30;72.10;;;;;;5035401;28;20219;-81
2021/08/18 12:00:39;;;;;;;1.30;1.20;;;20.40;72.00;;;;;;5035449;28;20162;-81
2021/08/18 12:03:07;;;;;;;0.95;0.93;;;20.40;71.80;;;;;;5018882;28;20176;-81
2021/08/18 12:05:37;;;;;;;0.95;0.88;;;20.30;71.50;;;;;;5086943;28;20608;-81
2021/08/18 12:08:11;;;;;;;2.38;0.93;;;20.40;71.60;;;;;;5068287;28;20247;-81
2021/08/18 12:10:42;;;;;;;1.52;1.20;;;20.30;71.50;;;;;;5018652;28;20272;-80
2021/08/18 12:13:10;;;;;;;1.80;1.40;;;20.30;71.60;;;;;;5065631;28;20562;-81
2021/08/18 12:15:49;;;;;;;3.10;1.20;;;20.30;71.80;;;;;;5015318;28;20155;-81
2021/08/18 12:18:35;;;;;;;1.77;1.20;;;20.30;71.80;;;;;;5094730;28;20183;-80
2021/08/18 12:21:15;;;;;;;1.60;1.13;;;20.30;71.90;;;;;;5015150;28;20646;-81
2021/08/18 12:23:45;;;;;;;1.02;0.85;;;20.30;71.90;;;;;;5031975;28;20159;-81
2021/08/18 12:26:30;;;;;;;1.35;1.10;;;20.30;72.00;;;;;;5099154;28;20270;-81
2021/08/18 12:29:04;;;;;;;3.10;1.10;;;20.30;72.10;;;;;;5083941;28;20186;-81
2021/08/18 12:32:05;;;;;;;1.40;1.00;;;20.40;72.00;;;;;;5014868;28;20182;-81
2021/08/18 12:34:44;;;;;;;1.63;1.20;;;20.30;72.10;;;;;;5014331;28;20210;-81
2021/08/18 12:37:26;;;;;;;4.43;1.60;;;20.40;72.10;;;;;;5100691;28;20208;-81
2021/08/18 12:39:56;;;;;;;4.07;1.73;;;20.40;72.30;;;;;;5016139;28;20625;-80
2021/08/18 12:42:32;;;;;;;2.55;1.40;;;20.40;72.10;;;;;;5067007;28;20182;-81
2021/08/18 12:45:01;;;;;;;4.45;1.80;;;20.30;72.40;;;;;;5084508;28;20199;-81
2021/08/18 12:47:36;;;;;;;3.25;1.50;;;20.40;72.40;;;;;;5015635;28;20183;-81
2021/08/18 12:50:04;;;;;;;3.63;1.50;;;20.30;72.10;;;;;;5083057;28;20174;-81
2021/08/18 12:52:31;;;;;;;3.70;1.40;;;20.40;72.10;;;;;;5084214;28;20189;-82
2021/08/18 12:55:01;;;;;;;4.75;1.70;;;20.40;72.00;;;;;;5084055;28;20187;-81
2021/08/18 12:57:28;;;;;;;2.88;1.20;;;20.40;72.00;;;;;;4999741;28;20183;-83